Time;durP1;ratioP1;P1;durP2;ratioP2;P2;SDS_P1;SDS_P2;PMS_P1;PMS_P2;Temp;Humidity;BMP_temperature;BMP_pressure;BME280_temperature;BME280_humidity;BME280_pressure;Samples;Min_cycle;Max_cycle;Signal;HPM_P1;HPM_P2
2022/08/15 00:01:08;;;;;;;14.85;6.65;;;22.00;99.90;;;;;;5093525;28;20086;-90
2022/08/15 00:03:37;;;;;;;8.75;6.75;;;22.00;99.90;;;;;;5092680;28;20478;-90
2022/08/15 00:06:07;;;;;;;10.90;6.50;;;22.00;99.90;;;;;;5108985;28;20542;-91
2022/08/15 00:08:38;;;;;;;8.60;7.07;;;21.90;99.90;;;;;;5110682;28;20494;-90
2022/08/15 00:11:10;;;;;;;8.23;7.13;;;22.10;99.90;;;;;;5108570;28;20035;-90
2022/08/15 00:13:37;;;;;;;8.98;7.05;;;21.90;99.90;;;;;;5093207;28;20134;-89
2022/08/15 00:16:05;;;;;;;10.27;7.43;;;21.80;99.90;;;;;;5092176;28;20475;-91
2022/08/15 00:18:32;;;;;;;8.00;6.90;;;21.80;99.90;;;;;;5060599;28;20107;-90
2022/08/15 00:20:58;;;;;;;9.38;7.10;;;22.20;99.90;;;;;;5110030;27;20173;-91
2022/08/15 00:23:26;;;;;;;7.97;6.97;;;21.80;99.90;;;;;;5080052;27;20043;-90
2022/08/15 00:25:55;;;;;;;8.10;6.35;;;21.80;99.90;;;;;;5081676;27;20566;-90
2022/08/15 00:28:20;;;;;;;11.10;6.55;;;21.70;99.90;;;;;;5095843;27;20042;-90
2022/08/15 00:30:46;;;;;;;9.70;7.47;;;21.70;99.90;;;;;;5080531;27;20401;-91
2022/08/15 00:33:14;;;;;;;9.93;7.38;;;21.70;99.90;;;;;;5095954;27;20088;-90
2022/08/15 00:35:41;;;;;;;11.90;7.10;;;21.70;99.90;;;;;;5097227;27;20578;-90
2022/08/15 00:38:12;;;;;;;12.85;7.47;;;21.60;99.90;;;;;;5096932;27;20053;-90
2022/08/15 00:43:26;;;;;;;11.55;6.75;;;21.50;99.90;;;;;;5114214;27;20046;-89
2022/08/15 00:45:53;;;;;;;12.07;7.93;;;21.50;99.90;;;;;;5095811;27;20102;-90
2022/08/15 00:51:08;;;;;;;11.93;7.70;;;21.50;99.90;;;;;;5099675;27;20100;-90
2022/08/15 00:53:34;;;;;;;11.13;7.18;;;21.40;99.90;;;;;;5094896;27;20045;-90
2022/08/15 00:56:07;;;;;;;10.45;7.28;;;21.40;99.90;;;;;;5097173;27;20043;-91
2022/08/15 00:58:33;;;;;;;7.57;6.85;;;21.40;99.90;;;;;;5095274;27;20047;-90
2022/08/15 01:00:59;;;;;;;9.68;7.88;;;21.40;99.90;;;;;;5079509;27;20047;-90
2022/08/15 01:03:31;;;;;;;9.40;8.43;;;21.90;99.90;;;;;;5078359;27;20039;-90
2022/08/15 01:06:00;;;;;;;9.60;8.43;;;21.30;99.90;;;;;;5095605;27;20039;-90
2022/08/15 01:08:30;;;;;;;9.70;8.57;;;21.20;99.90;;;;;;5097091;27;20548;-89
2022/08/15 01:10:58;;;;;;;14.70;8.07;;;21.20;99.90;;;;;;5095014;27;20047;-90
2022/08/15 01:13:24;;;;;;;11.18;7.68;;;21.20;99.90;;;;;;5096355;27;20039;-90
2022/08/15 01:15:50;;;;;;;8.93;7.72;;;21.10;99.90;;;;;;5077461;27;20474;-90
2022/08/15 01:18:17;;;;;;;12.88;8.05;;;21.20;99.90;;;;;;5079476;27;20031;-90
2022/08/15 01:20:43;;;;;;;13.55;8.05;;;21.20;99.90;;;;;;5095493;27;20078;-90
2022/08/15 01:23:19;;;;;;;8.88;7.60;;;21.10;99.90;;;;;;5078490;27;20036;-90
2022/08/15 01:25:52;;;;;;;8.48;7.45;;;21.10;99.90;;;;;;5113401;27;20235;-91
2022/08/15 01:28:20;;;;;;;8.85;7.75;;;21.10;99.90;;;;;;5094428;27;20198;-90
2022/08/15 01:30:56;;;;;;;8.60;7.22;;;21.00;99.90;;;;;;5113026;27;20051;-89
2022/08/15 01:33:23;;;;;;;10.07;9.05;;;21.00;99.90;;;;;;5110909;27;20116;-90
2022/08/15 01:35:52;;;;;;;12.48;10.18;;;21.00;99.90;;;;;;5112447;27;20039;-90
2022/08/15 01:38:30;;;;;;;10.48;8.73;;;21.00;99.90;;;;;;5096487;27;20062;-90
2022/08/15 01:41:27;;;;;;;10.18;7.78;;;21.00;99.90;;;;;;5111679;27;20432;-90
2022/08/15 01:44:17;;;;;;;10.18;8.02;;;21.00;99.90;;;;;;5094881;27;20100;-90
2022/08/15 01:46:58;;;;;;;11.15;8.32;;;20.90;99.90;;;;;;5096126;27;20528;-89
2022/08/15 01:49:34;;;;;;;10.90;9.25;;;21.00;99.90;;;;;;5094039;27;20519;-90
2022/08/15 01:52:03;;;;;;;10.98;8.23;;;21.00;99.90;;;;;;5096410;27;20398;-91
2022/08/15 01:54:35;;;;;;;9.93;8.13;;;21.00;99.90;;;;;;5111022;27;20043;-89
2022/08/15 01:57:03;;;;;;;10.73;8.23;;;21.00;99.90;;;;;;5112730;27;20108;-90
2022/08/15 01:59:28;;;;;;;9.52;7.60;;;21.00;99.90;;;;;;5095949;27;20287;-90
2022/08/15 02:02:02;;;;;;;11.82;8.57;;;21.00;99.90;;;;;;5077416;27;20043;-91
2022/08/15 02:04:34;;;;;;;9.38;8.27;;;21.00;99.90;;;;;;5112572;27;20047;-90
2022/08/15 02:07:04;;;;;;;14.55;8.85;;;21.00;99.90;;;;;;5093832;27;20040;-90
2022/08/15 02:09:31;;;;;;;10.52;8.88;;;21.00;99.90;;;;;;5112317;27;20051;-90
2022/08/15 02:12:00;;;;;;;13.80;8.68;;;21.00;99.90;;;;;;5095002;27;20053;-90
2022/08/15 02:14:27;;;;;;;12.63;9.50;;;21.10;99.90;;;;;;5077710;27;20043;-91
2022/08/15 02:16:53;;;;;;;11.48;9.18;;;21.10;99.90;;;;;;5096112;27;20078;-90
2022/08/15 02:19:19;;;;;;;9.85;8.82;;;21.10;99.90;;;;;;5094434;27;20427;-90
2022/08/15 02:21:47;;;;;;;11.48;9.05;;;21.10;99.90;;;;;;5078826;27;20529;-90
2022/08/15 02:24:20;;;;;;;9.63;8.70;;;21.20;99.90;;;;;;5093343;27;20151;-91
2022/08/15 02:26:47;;;;;;;13.90;8.77;;;21.20;99.90;;;;;;5111907;27;20125;-90
2022/08/15 02:29:13;;;;;;;12.52;9.07;;;21.20;99.90;;;;;;5077628;27;20047;-91
2022/08/15 02:31:40;;;;;;;10.43;9.00;;;21.20;99.90;;;;;;5093681;27;20050;-91
2022/08/15 02:34:07;;;;;;;10.88;8.77;;;21.30;99.90;;;;;;5111964;27;20058;-90
2022/08/15 02:36:36;;;;;;;10.65;8.40;;;21.20;99.90;;;;;;5110790;27;20497;-90
2022/08/15 02:39:05;;;;;;;12.60;9.35;;;21.30;99.90;;;;;;5095143;27;20075;-90
2022/08/15 02:41:38;;;;;;;12.90;8.90;;;21.20;99.90;;;;;;5093525;27;20077;-90
2022/08/15 02:44:05;;;;;;;11.18;9.20;;;21.30;99.90;;;;;;5094725;27;20084;-90
2022/08/15 02:46:31;;;;;;;12.25;8.68;;;21.30;99.90;;;;;;5094712;27;20042;-91
2022/08/15 02:48:58;;;;;;;10.32;8.18;;;21.30;99.90;;;;;;5093139;27;20049;-91
2022/08/15 02:51:26;;;;;;;10.02;8.52;;;21.30;99.90;;;;;;5095180;27;20543;-90
2022/08/15 02:53:54;;;;;;;14.88;8.63;;;21.30;99.90;;;;;;5093443;27;20082;-90
2022/08/15 02:56:24;;;;;;;10.07;9.02;;;21.30;99.90;;;;;;5077984;27;20039;-90
2022/08/15 02:58:51;;;;;;;9.32;8.13;;;21.30;99.90;;;;;;5110485;27;20039;-90
2022/08/15 03:01:18;;;;;;;9.93;8.35;;;21.30;99.90;;;;;;5093870;27;20100;-90
2022/08/15 03:03:47;;;;;;;12.77;8.57;;;21.30;99.90;;;;;;5094296;27;20038;-91
2022/08/15 03:06:20;;;;;;;11.63;7.97;;;21.30;99.90;;;;;;5109727;27;20506;-90
2022/08/15 03:08:46;;;;;;;9.82;8.88;;;21.20;99.90;;;;;;5094762;27;20078;-90
2022/08/15 03:11:15;;;;;;;9.77;8.50;;;21.20;99.90;;;;;;5075720;27;20075;-90
2022/08/15 03:13:41;;;;;;;13.07;9.77;;;21.20;99.90;;;;;;5094440;27;20513;-90
2022/08/15 03:16:09;;;;;;;9.50;8.43;;;21.20;99.90;;;;;;5110230;27;20039;-90
2022/08/15 03:18:36;;;;;;;10.13;9.13;;;21.20;99.90;;;;;;5076522;27;20039;-90
2022/08/15 03:21:05;;;;;;;11.60;8.75;;;21.20;99.90;;;;;;5094441;27;20058;-91
2022/08/15 03:23:32;;;;;;;10.57;9.38;;;21.20;99.90;;;;;;5109229;27;20046;-90
2022/08/15 03:26:00;;;;;;;13.93;8.45;;;21.20;99.90;;;;;;5077643;27;20497;-91
2022/08/15 03:28:31;;;;;;;11.13;9.30;;;21.20;99.90;;;;;;5093114;27;20367;-90
2022/08/15 03:31:00;;;;;;;12.23;8.60;;;21.20;99.90;;;;;;5110934;27;20082;-90
2022/08/15 03:33:27;;;;;;;9.60;8.70;;;21.20;99.90;;;;;;5089557;28;20039;-90
2022/08/15 03:35:53;;;;;;;11.77;8.77;;;21.20;99.90;;;;;;5072312;28;20572;-90
2022/08/15 03:38:19;;;;;;;9.85;8.85;;;21.20;99.90;;;;;;5107712;28;20043;-90
2022/08/15 03:40:49;;;;;;;10.18;8.20;;;21.20;99.90;;;;;;5072560;28;20046;-90
2022/08/15 03:43:21;;;;;;;12.70;8.98;;;21.20;99.90;;;;;;5107884;28;20621;-90
2022/08/15 03:45:55;;;;;;;11.73;9.82;;;21.20;99.90;;;;;;5106309;28;20043;-90
2022/08/15 03:48:24;;;;;;;12.05;9.30;;;21.10;99.90;;;;;;5106880;28;20039;-90
2022/08/15 03:50:52;;;;;;;14.35;10.38;;;21.10;99.90;;;;;;5106979;28;20071;-90
2022/08/15 03:53:18;;;;;;;11.60;10.40;;;21.10;99.90;;;;;;5089110;28;20047;-90
2022/08/15 03:55:45;;;;;;;13.48;9.60;;;21.10;99.90;;;;;;5090636;28;20120;-90
2022/08/15 03:58:14;;;;;;;11.98;8.90;;;21.10;99.90;;;;;;5105621;28;20039;-91
2022/08/15 04:00:46;;;;;;;12.45;9.07;;;21.10;99.90;;;;;;5107441;28;20036;-91
2022/08/15 04:03:19;;;;;;;9.30;8.40;;;21.00;99.90;;;;;;5089217;28;20123;-91
2022/08/15 04:05:51;;;;;;;11.27;10.00;;;21.00;99.90;;;;;;5089845;28;20043;-90
2022/08/15 04:08:20;;;;;;;10.00;8.95;;;21.00;99.90;;;;;;5107865;28;20039;-90
2022/08/15 04:10:50;;;;;;;9.38;8.45;;;20.90;99.90;;;;;;5088401;28;20118;-90
2022/08/15 04:13:18;;;;;;;10.07;9.07;;;20.90;99.90;;;;;;5073386;28;20101;-90
2022/08/15 04:15:47;;;;;;;11.43;9.65;;;20.90;99.90;;;;;;5088338;28;20044;-88
2022/08/15 04:18:12;;;;;;;12.00;10.07;;;20.80;99.90;;;;;;5072978;28;20083;-90
2022/08/15 04:20:38;;;;;;;17.27;8.93;;;20.80;99.90;;;;;;5056072;28;20090;-91
2022/08/15 04:23:05;;;;;;;12.98;9.18;;;20.70;99.90;;;;;;5089039;28;20078;-90
2022/08/15 04:25:34;;;;;;;20.35;10.52;;;20.80;99.90;;;;;;5090628;28;20211;-90
2022/08/15 04:28:03;;;;;;;10.60;9.50;;;20.70;99.90;;;;;;5087849;28;20145;-90
2022/08/15 04:30:37;;;;;;;10.73;9.60;;;20.60;99.90;;;;;;5090143;28;20044;-90
2022/08/15 04:33:16;;;;;;;11.90;9.90;;;20.60;99.90;;;;;;5089732;28;20460;-90
2022/08/15 04:35:45;;;;;;;10.68;9.38;;;20.60;99.90;;;;;;5110028;28;20050;-90
2022/08/15 04:38:11;;;;;;;18.02;10.07;;;20.60;99.90;;;;;;5093581;28;20047;-90
2022/08/15 04:40:37;;;;;;;15.88;11.48;;;20.60;99.90;;;;;;5074633;28;20092;-90
2022/08/15 04:43:03;;;;;;;13.82;10.77;;;20.50;99.90;;;;;;5110231;28;20625;-90
2022/08/15 04:45:32;;;;;;;14.52;10.75;;;20.50;99.90;;;;;;5074480;28;20039;-89
2022/08/15 04:48:02;;;;;;;13.07;11.02;;;20.50;99.90;;;;;;5076444;28;20039;-90
2022/08/15 04:50:34;;;;;;;14.10;11.25;;;20.50;99.90;;;;;;5076297;28;20039;-91
2022/08/15 04:53:00;;;;;;;11.27;10.18;;;20.50;99.90;;;;;;5091454;28;20043;-90
2022/08/15 04:55:27;;;;;;;13.40;11.60;;;20.50;99.90;;;;;;5076309;28;20043;-90
2022/08/15 04:57:54;;;;;;;13.18;11.55;;;20.50;99.90;;;;;;5091296;28;20133;-91
2022/08/15 05:00:22;;;;;;;16.88;11.77;;;20.50;99.90;;;;;;5075957;28;20047;-90
2022/08/15 05:03:12;;;;;;;15.07;12.98;;;20.50;99.90;;;;;;5108153;28;20502;-90
2022/08/15 05:05:41;;;;;;;15.10;13.32;;;20.50;99.90;;;;;;5092437;28;20035;-90
2022/08/15 05:08:08;;;;;;;15.27;11.95;;;20.50;99.90;;;;;;5093807;27;20054;-90
2022/08/15 05:10:35;;;;;;;15.80;12.52;;;20.50;99.90;;;;;;5078231;27;20043;-91
2022/08/15 05:13:17;;;;;;;16.63;13.02;;;20.50;99.90;;;;;;5113901;27;20058;-90
2022/08/15 05:15:45;;;;;;;15.25;12.02;;;20.40;99.90;;;;;;5095354;27;20634;-91
2022/08/15 05:18:12;;;;;;;13.88;12.45;;;20.60;99.90;;;;;;5096542;27;20035;-91
2022/08/15 05:20:41;;;;;;;14.65;13.05;;;20.60;99.90;;;;;;5096842;27;20420;-92
2022/08/15 05:23:13;;;;;;;15.55;11.93;;;20.70;99.90;;;;;;5079256;27;20058;-92
2022/08/15 05:25:41;;;;;;;14.83;13.33;;;20.70;99.90;;;;;;5114285;27;20466;-91
2022/08/15 05:28:09;;;;;;;15.20;12.30;;;20.70;99.90;;;;;;5094889;27;20047;-91
2022/08/15 05:30:35;;;;;;;13.90;12.50;;;20.70;99.90;;;;;;5096481;27;20043;-90
2022/08/15 05:33:08;;;;;;;14.10;12.50;;;20.80;99.90;;;;;;5077659;27;20076;-91
2022/08/15 05:35:34;;;;;;;;;;;20.80;99.90;;;;;;5112942;27;20054;-91
2022/08/15 05:38:03;;;;;;;14.00;12.57;;;20.80;99.90;;;;;;5096480;27;19919;-91
2022/08/15 05:40:43;;;;;;;16.13;13.30;;;20.80;99.90;;;;;;5095063;27;20043;-91
2022/08/15 05:43:18;;;;;;;14.00;12.05;;;20.80;99.90;;;;;;5095834;27;20075;-90
2022/08/15 05:46:19;;;;;;;16.10;13.40;;;20.80;99.90;;;;;;5094551;27;20051;-89
2022/08/15 05:48:48;;;;;;;14.85;12.57;;;20.80;99.90;;;;;;5094949;27;20443;-90
2022/08/15 05:51:32;;;;;;;19.63;13.02;;;20.90;99.90;;;;;;5096276;27;20039;-90
2022/08/15 05:54:03;;;;;;;14.23;12.75;;;20.90;99.90;;;;;;5110880;27;20498;-89
2022/08/15 05:56:45;;;;;;;13.55;12.20;;;20.90;99.90;;;;;;5112297;27;20085;-88
2022/08/15 05:59:15;;;;;;;18.13;11.65;;;21.00;99.90;;;;;;5094166;27;20308;-88
2022/08/15 06:01:50;;;;;;;15.23;13.68;;;21.00;99.90;;;;;;5111307;27;20031;-91
2022/08/15 06:04:34;;;;;;;14.18;12.77;;;21.10;99.90;;;;;;5113002;27;20039;-93
2022/08/15 06:07:06;;;;;;;15.65;12.80;;;21.10;99.90;;;;;;5094701;27;20058;-94
2022/08/15 06:09:51;;;;;;;18.83;13.00;;;21.10;99.90;;;;;;5095691;27;20091;-90
2022/08/15 06:12:25;;;;;;;18.50;13.15;;;21.20;99.90;;;;;;5095914;27;20047;-93
2022/08/15 06:14:55;;;;;;;19.13;12.32;;;21.30;99.90;;;;;;5094705;27;20130;-94
2022/08/15 06:17:28;;;;;;;18.45;13.65;;;21.30;99.90;;;;;;5096418;27;20035;-91
2022/08/15 06:19:58;;;;;;;17.00;11.95;;;21.40;99.90;;;;;;5094571;27;20039;-93
2022/08/15 06:22:24;;;;;;;13.60;12.20;;;21.50;99.90;;;;;;5095128;27;20050;-90
2022/08/15 06:25:11;;;;;;;14.45;12.68;;;21.50;99.90;;;;;;5094986;27;20039;-93
2022/08/15 06:27:55;;;;;;;15.95;11.80;;;21.50;99.90;;;;;;5094447;27;20401;-92
2022/08/15 06:30:30;;;;;;;16.02;13.70;;;21.60;99.90;;;;;;5095336;27;20039;-88
2022/08/15 06:33:20;;;;;;;20.25;12.95;;;21.70;99.90;;;;;;5094031;27;20451;-92
2022/08/15 06:35:52;;;;;;;18.00;13.10;;;22.30;99.90;;;;;;5093889;27;20057;-90
2022/08/15 06:38:26;;;;;;;15.38;12.85;;;21.90;99.90;;;;;;5094553;27;20159;-89
2022/08/15 06:40:58;;;;;;;13.68;12.27;;;21.90;99.90;;;;;;5110183;27;20047;-91
2022/08/15 06:43:23;;;;;;;15.85;13.13;;;22.10;99.90;;;;;;5094912;27;20100;-89
2022/08/15 06:45:53;;;;;;;17.05;13.00;;;22.20;99.90;;;;;;5076063;27;20081;-91
2022/08/15 06:48:23;;;;;;;14.80;12.02;;;22.30;99.90;;;;;;5095334;27;20042;-92
2022/08/15 06:50:55;;;;;;;14.77;13.23;;;22.40;99.90;;;;;;5095335;27;20043;-94
2022/08/15 06:53:33;;;;;;;22.13;13.73;;;22.50;99.90;;;;;;5094283;27;20047;-92
2022/08/15 06:56:05;;;;;;;17.75;13.25;;;22.50;99.90;;;;;;5094072;27;20518;-92
2022/08/15 06:59:08;;;;;;;13.10;11.80;;;22.50;99.90;;;;;;5093883;27;20051;-94
2022/08/15 07:02:08;;;;;;;14.30;12.80;;;22.70;99.90;;;;;;5112531;27;20120;-94
2022/08/15 07:04:53;;;;;;;14.32;12.25;;;22.60;99.90;;;;;;5091531;27;20057;-94
2022/08/15 07:07:28;;;;;;;13.75;12.38;;;22.60;99.90;;;;;;5093477;27;20537;-94
2022/08/15 07:10:01;;;;;;;15.15;12.88;;;22.70;99.90;;;;;;5094127;27;20498;-94
2022/08/15 07:12:42;;;;;;;15.50;12.70;;;22.70;99.90;;;;;;5094773;27;20036;-94
2022/08/15 07:15:35;;;;;;;13.48;12.18;;;22.70;99.90;;;;;;5093447;27;20607;-94
2022/08/15 07:18:07;;;;;;;14.73;13.23;;;22.70;99.90;;;;;;5094341;27;20047;-94
2022/08/15 07:20:34;;;;;;;19.55;13.35;;;22.80;99.90;;;;;;5093865;27;20134;-95
2022/08/15 07:23:13;;;;;;;14.00;12.52;;;22.80;99.90;;;;;;5076914;27;20031;-94
2022/08/15 07:25:48;;;;;;;16.10;12.70;;;22.90;99.90;;;;;;5095006;27;20047;-93
2022/08/15 07:28:17;;;;;;;13.65;12.07;;;23.00;99.90;;;;;;5093196;27;20074;-94
2022/08/15 07:30:59;;;;;;;15.20;12.15;;;23.10;99.90;;;;;;5093378;28;20067;-95
2022/08/15 07:33:36;;;;;;;14.02;12.15;;;23.10;99.90;;;;;;5093322;27;20058;-94
2022/08/15 07:36:14;;;;;;;13.80;12.32;;;23.20;99.90;;;;;;5093487;27;20066;-94
2022/08/15 07:38:41;;;;;;;15.15;11.98;;;23.30;99.90;;;;;;5094498;28;20099;-94
2022/08/15 07:41:27;;;;;;;13.05;11.75;;;23.40;99.90;;;;;;5076513;27;20076;-94
2022/08/15 07:44:17;;;;;;;14.20;11.15;;;23.40;99.90;;;;;;5094233;27;20085;-93
2022/08/15 07:46:52;;;;;;;14.13;12.18;;;23.50;99.90;;;;;;5094499;27;20043;-95
2022/08/15 07:49:27;;;;;;;14.70;11.80;;;23.60;99.90;;;;;;5093136;27;20424;-94
2022/08/15 07:52:23;;;;;;;14.77;11.40;;;23.70;99.90;;;;;;5093645;28;20162;-93
2022/08/15 07:54:52;;;;;;;21.27;12.23;;;23.80;99.90;;;;;;5093700;28;20047;-94
2022/08/15 07:57:23;;;;;;;11.68;10.38;;;23.90;99.90;;;;;;5093592;28;20054;-94
2022/08/15 08:00:21;;;;;;;19.10;11.63;;;24.10;99.90;;;;;;5112961;28;20068;-94
2022/08/15 08:03:20;;;;;;;13.10;10.07;;;24.30;99.90;;;;;;5095018;28;20120;-95
2022/08/15 08:05:59;;;;;;;11.88;10.13;;;24.40;99.90;;;;;;5111864;28;20118;-94
2022/08/15 08:08:41;;;;;;;14.77;8.90;;;24.60;99.90;;;;;;5124198;28;20039;-93
2022/08/15 08:11:22;;;;;;;12.88;9.77;;;24.70;99.90;;;;;;5097278;28;20376;-94
2022/08/15 08:14:10;;;;;;;12.20;9.05;;;24.90;99.90;;;;;;5130740;27;20062;-93
2022/08/15 08:16:59;;;;;;;12.70;9.88;;;25.10;99.90;;;;;;5124790;28;20047;-93
2022/08/15 08:19:41;;;;;;;11.00;8.57;;;25.40;99.90;;;;;;5097308;28;20045;-94
2022/08/15 08:22:28;;;;;;;10.73;8.50;;;25.50;99.90;;;;;;5097020;28;20478;-95
2022/08/15 08:25:29;;;;;;;11.68;7.72;;;25.90;99.90;;;;;;5094724;28;20043;-94
2022/08/15 08:28:02;;;;;;;11.57;7.20;;;26.20;99.90;;;;;;5109297;28;20082;-94
2022/08/15 08:30:46;;;;;;;9.73;7.40;;;26.50;99.90;;;;;;5094128;28;20054;-94
2022/08/15 08:33:35;;;;;;;7.10;5.97;;;26.80;99.90;;;;;;5110143;27;20066;-95
2022/08/15 08:36:27;;;;;;;6.13;5.03;;;27.00;99.90;;;;;;5093732;28;20039;-94
2022/08/15 08:39:22;;;;;;;7.65;5.15;;;27.30;99.90;;;;;;5095864;28;20047;-95
2022/08/15 08:42:11;;;;;;;8.23;5.45;;;27.40;99.90;;;;;;5068675;27;20055;-95
2022/08/15 08:44:48;;;;;;;5.55;4.95;;;27.50;99.90;;;;;;5114025;27;20043;-94
2022/08/15 08:47:32;;;;;;;5.40;4.65;;;27.60;99.90;;;;;;5116374;27;20447;-94
2022/08/15 08:50:00;;;;;;;5.80;4.63;;;27.60;99.90;;;;;;5096646;27;20043;-94
2022/08/15 08:52:32;;;;;;;9.45;4.90;;;27.50;99.90;;;;;;5114506;27;20084;-95
2022/08/15 08:55:01;;;;;;;8.38;5.43;;;27.50;99.90;;;;;;5097896;27;20050;-94
2022/08/15 08:57:36;;;;;;;9.43;5.35;;;27.40;99.90;;;;;;5097036;27;20059;-95
2022/08/15 09:00:14;;;;;;;8.23;5.50;;;27.40;99.90;;;;;;5114621;27;20047;-93
2022/08/15 09:02:57;;;;;;;6.22;5.07;;;27.50;99.90;;;;;;5113144;27;20043;-94
2022/08/15 09:05:26;;;;;;;6.38;5.63;;;27.60;99.80;;;;;;5097343;27;20076;-95
2022/08/15 09:07:57;;;;;;;5.65;4.85;;;27.50;99.60;;;;;;5096890;27;20054;-94
2022/08/15 09:10:32;;;;;;;7.75;5.07;;;27.50;99.50;;;;;;5112982;27;20050;-94
2022/08/15 09:15:51;;;;;;;5.65;4.40;;;27.40;99.00;;;;;;5112455;27;20051;-94
2022/08/15 09:18:34;;;;;;;7.82;5.60;;;27.40;98.80;;;;;;5113917;27;20042;-94
2022/08/15 09:21:01;;;;;;;5.65;4.85;;;27.40;98.00;;;;;;5114615;27;20110;-94
2022/08/15 09:23:35;;;;;;;6.32;4.55;;;27.40;98.20;;;;;;5112281;27;20043;-94
2022/08/15 09:26:15;;;;;;;5.88;4.38;;;27.50;98.00;;;;;;5096898;27;20087;-95
2022/08/15 09:29:01;;;;;;;5.07;4.43;;;27.70;97.30;;;;;;5112723;27;20111;-95
2022/08/15 09:31:31;;;;;;;8.23;4.72;;;27.80;97.60;;;;;;5081993;27;20039;-95
2022/08/15 09:34:35;;;;;;;7.57;4.97;;;27.80;97.10;;;;;;5093647;28;20604;-94
2022/08/15 09:37:28;;;;;;;7.40;5.13;;;27.80;96.80;;;;;;5092309;28;20070;-95
2022/08/15 09:40:14;;;;;;;6.10;4.82;;;27.80;96.50;;;;;;5093021;28;20051;-94
2022/08/15 09:42:55;;;;;;;5.20;4.70;;;27.70;97.10;;;;;;5093624;28;20104;-95
2022/08/15 09:45:31;;;;;;;5.53;4.72;;;27.80;97.60;;;;;;5092022;28;20092;-94
2022/08/15 09:48:23;;;;;;;7.03;4.82;;;27.90;97.80;;;;;;5110209;28;20053;-95
2022/08/15 09:51:12;;;;;;;5.72;5.13;;;27.90;97.70;;;;;;5091523;28;20083;-93
2022/08/15 09:54:17;;;;;;;9.65;5.20;;;28.00;97.50;;;;;;5091042;28;20170;-95
2022/08/15 09:56:44;;;;;;;6.40;5.40;;;28.50;95.90;;;;;;5076389;28;20151;-95
2022/08/15 09:59:22;;;;;;;8.13;4.68;;;28.10;97.00;;;;;;5109316;28;20273;-93
2022/08/15 10:01:56;;;;;;;8.13;5.68;;;28.10;96.50;;;;;;5091621;28;20058;-95
2022/08/15 10:04:40;;;;;;;6.43;5.60;;;28.20;96.40;;;;;;5092757;28;20508;-96
2022/08/15 10:07:09;;;;;;;6.18;5.10;;;28.10;96.10;;;;;;5076775;28;20487;-93
2022/08/15 10:09:40;;;;;;;7.18;5.18;;;28.20;96.20;;;;;;5110002;28;20051;-94
2022/08/15 10:12:06;;;;;;;6.30;4.83;;;28.30;96.00;;;;;;5092313;28;20112;-95
2022/08/15 10:14:47;;;;;;;5.55;4.68;;;28.30;95.70;;;;;;5091184;28;20381;-95
2022/08/15 10:17:37;;;;;;;4.95;4.10;;;28.40;94.30;;;;;;5109753;28;20071;-92
2022/08/15 10:20:18;;;;;;;7.03;4.65;;;28.40;94.00;;;;;;5091085;28;20048;-95
2022/08/15 10:22:49;;;;;;;6.15;4.82;;;28.50;93.50;;;;;;5091945;28;20138;-94
2022/08/15 10:25:36;;;;;;;4.90;4.32;;;28.50;94.00;;;;;;5092588;28;20501;-95
2022/08/15 10:28:05;;;;;;;5.72;4.82;;;28.60;93.20;;;;;;5091014;28;20090;-95
2022/08/15 10:31:00;;;;;;;7.03;4.45;;;28.60;93.60;;;;;;5092636;28;20092;-94
2022/08/15 10:33:34;;;;;;;5.13;4.45;;;28.70;92.30;;;;;;5091563;28;20055;-94
2022/08/15 10:36:21;;;;;;;5.00;4.22;;;28.80;92.70;;;;;;5091032;28;20128;-95
2022/08/15 10:39:22;;;;;;;6.03;4.93;;;28.90;91.80;;;;;;5109345;28;20047;-94
2022/08/15 10:42:09;;;;;;;7.57;4.68;;;28.90;92.00;;;;;;5077470;28;20055;-94
2022/08/15 10:45:20;;;;;;;5.60;5.00;;;29.00;91.00;;;;;;5108011;28;20046;-96
2022/08/15 10:48:03;;;;;;;8.60;5.15;;;29.10;90.90;;;;;;5065974;28;20106;-93
2022/08/15 10:50:42;;;;;;;5.35;4.85;;;29.10;90.70;;;;;;5108240;28;20040;-94
2022/08/15 10:53:32;;;;;;;7.85;6.22;;;29.10;90.40;;;;;;5108012;28;20506;-94
2022/08/15 10:56:24;;;;;;;7.00;5.28;;;29.20;90.60;;;;;;5091697;28;20214;-94
2022/08/15 10:58:51;;;;;;;5.43;4.78;;;29.20;90.40;;;;;;5091307;28;20110;-95
2022/08/15 11:01:21;;;;;;;12.25;5.25;;;29.20;90.40;;;;;;5090996;28;20040;-95
2022/08/15 11:04:21;;;;;;;5.90;5.18;;;29.20;89.10;;;;;;5091994;28;20031;-95
2022/08/15 11:06:46;;;;;;;5.78;5.03;;;29.20;87.20;;;;;;5086072;28;20051;-95
2022/08/15 11:09:18;;;;;;;6.55;4.93;;;29.10;88.60;;;;;;5074388;28;20537;-95
2022/08/15 11:11:51;;;;;;;5.60;5.10;;;29.20;86.80;;;;;;5090731;28;20097;-95
2022/08/15 11:14:26;;;;;;;11.23;6.28;;;29.40;85.40;;;;;;5091219;28;20144;-95
2022/08/15 11:16:52;;;;;;;9.75;5.60;;;29.60;84.60;;;;;;5109001;28;20044;-95
2022/08/15 11:19:28;;;;;;;14.02;6.10;;;29.80;83.00;;;;;;5074187;28;20035;-94
2022/08/15 11:21:58;;;;;;;9.48;6.20;;;30.00;78.40;;;;;;5093884;28;20043;-95
2022/08/15 11:24:33;;;;;;;8.13;5.57;;;29.90;79.10;;;;;;5095670;28;20044;-94
2022/08/15 11:27:21;;;;;;;9.55;6.35;;;29.90;78.40;;;;;;5092992;28;20050;-95
2022/08/15 11:29:49;;;;;;;7.82;7.05;;;29.80;75.20;;;;;;5099373;28;20130;-95
2022/08/15 11:32:33;;;;;;;13.07;9.75;;;29.60;79.50;;;;;;5080824;28;20067;-94
2022/08/15 11:35:18;;;;;;;10.73;8.88;;;29.40;81.80;;;;;;5100714;28;20048;-94
2022/08/15 11:37:46;;;;;;;9.00;8.02;;;29.20;84.30;;;;;;5082155;28;20079;-95
2022/08/15 11:40:20;;;;;;;9.18;8.25;;;29.00;86.30;;;;;;5083616;28;20219;-95
2022/08/15 11:42:58;;;;;;;10.30;8.15;;;28.80;87.20;;;;;;5116616;28;20052;-96
2022/08/15 11:45:33;;;;;;;12.25;8.95;;;28.50;88.60;;;;;;5098945;28;20523;-94
2022/08/15 11:48:01;;;;;;;9.38;8.38;;;28.30;89.00;;;;;;5114929;28;20043;-94
2022/08/15 11:50:35;;;;;;;9.95;8.20;;;28.30;90.50;;;;;;5097476;28;20135;-94
2022/08/15 11:53:05;;;;;;;9.00;7.95;;;28.10;90.90;;;;;;5098472;28;20140;-96
2022/08/15 11:55:31;;;;;;;8.55;7.65;;;28.00;91.40;;;;;;5097864;28;20040;-95
2022/08/15 11:58:27;;;;;;;9.93;8.02;;;27.90;92.00;;;;;;5098310;28;20563;-95
2022/08/15 12:01:19;;;;;;;10.70;7.53;;;27.80;92.50;;;;;;5098589;28;20101;-94
2022/08/15 12:04:07;;;;;;;8.60;7.80;;;27.70;93.10;;;;;;5097405;28;20479;-92
2022/08/15 12:06:39;;;;;;;9.55;8.10;;;27.60;93.80;;;;;;5096531;28;20078;-94
2022/08/15 12:09:26;;;;;;;9.60;8.13;;;27.60;94.80;;;;;;5098345;28;20051;-96
2022/08/15 12:11:52;;;;;;;9.70;8.45;;;27.60;96.70;;;;;;5097999;28;20054;-94
2022/08/15 12:14:39;;;;;;;10.63;7.80;;;27.50;97.20;;;;;;5080304;28;20055;-95
2022/08/15 12:17:07;;;;;;;10.15;7.97;;;27.30;97.50;;;;;;5099308;28;20502;-96
2022/08/15 12:19:35;;;;;;;7.72;6.82;;;27.30;97.50;;;;;;5084186;28;20048;-95
2022/08/15 12:22:10;;;;;;;10.30;6.90;;;27.30;97.90;;;;;;5101029;28;20082;-94
2022/08/15 12:24:37;;;;;;;7.75;6.88;;;27.20;98.20;;;;;;5101222;28;20140;-93
2022/08/15 12:27:06;;;;;;;8.82;6.53;;;27.20;98.70;;;;;;5084047;28;20334;-94
2022/08/15 12:29:33;;;;;;;8.02;6.00;;;27.20;98.90;;;;;;5101498;28;20039;-95
2022/08/15 12:32:03;;;;;;;8.00;6.63;;;27.20;99.40;;;;;;5099415;28;20050;-93
2022/08/15 12:34:44;;;;;;;8.27;5.60;;;27.30;99.50;;;;;;5103155;28;20065;-94
2022/08/15 12:37:19;;;;;;;6.13;5.53;;;27.30;99.00;;;;;;5102527;28;20072;-92
2022/08/15 12:39:47;;;;;;;6.60;6.00;;;27.20;98.80;;;;;;5103019;28;20074;-94
2022/08/15 12:42:23;;;;;;;6.03;5.50;;;27.30;98.50;;;;;;5087167;28;20414;-95
2022/08/15 12:44:51;;;;;;;7.68;5.13;;;27.40;98.30;;;;;;5102621;28;20503;-93
2022/08/15 12:47:21;;;;;;;6.67;5.53;;;27.50;98.10;;;;;;5120824;28;20099;-94
2022/08/15 12:49:47;;;;;;;9.10;5.47;;;27.50;97.90;;;;;;5103001;28;20285;-93
2022/08/15 12:52:14;;;;;;;6.22;4.68;;;27.60;97.70;;;;;;5087906;28;20051;-95
2022/08/15 12:54:40;;;;;;;6.50;5.72;;;27.70;96.90;;;;;;5107355;28;20072;-94
2022/08/15 12:57:06;;;;;;;7.57;6.15;;;27.80;96.60;;;;;;5074352;28;20104;-95
2022/08/15 12:59:32;;;;;;;7.25;6.55;;;27.80;96.40;;;;;;5093371;28;20040;-95
2022/08/15 13:01:58;;;;;;;7.03;5.88;;;27.80;97.00;;;;;;5090884;28;20035;-93
2022/08/15 13:04:28;;;;;;;6.25;5.65;;;27.80;97.90;;;;;;5110981;28;20031;-95
2022/08/15 13:07:05;;;;;;;8.00;6.65;;;27.80;98.10;;;;;;5098144;28;20050;-95
2022/08/15 13:09:32;;;;;;;7.55;6.00;;;27.80;98.40;;;;;;5113179;28;20099;-96
2022/08/15 13:12:01;;;;;;;7.88;6.88;;;27.80;98.40;;;;;;5125353;28;20051;-95
2022/08/15 13:14:29;;;;;;;10.07;7.72;;;27.70;98.50;;;;;;5091249;28;20044;-95
2022/08/15 13:16:56;;;;;;;6.82;6.13;;;27.70;98.60;;;;;;5090448;28;20080;-94
2022/08/15 13:25:21;;;;;;;9.30;7.78;;;27.70;99.10;;;;;;5120062;28;20055;-95
2022/08/15 13:27:49;;;;;;;7.90;7.10;;;27.70;99.50;;;;;;5129869;28;20063;-95